FMEE/RUN METAR and TAF weather

Enter ICAO airport designator
Station Type Date Time Source
FMEE METAR 2018/09/21 23:30 UTC NOAA

FMEE 212330Z AUTO 12011KT 9999 NCD 21/15 Q1019 NOSIG


Station Type Date Time Source
FMEE Decoded METAR 2018/09/21 23:30 UTC NOAA

Saint-Denis / Gillot, Reunion (FMEE) 20-53S 055-31E 25M
Sep 21, 2018 - 07:30 PM EDT / 2018.09.21 2330 UTC
Wind: from the ESE (120 degrees) at 13 MPH (11 KT):0
Visibility: greater than 7 mile(s):0
Temperature: 69 F (21 C)
Dew Point: 59 F (15 C)
Relative Humidity: 68%
Pressure (altimeter): 30.09 in. Hg (1019 hPa)
ob: FMEE 212330Z AUTO 12011KT 9999 NCD 21/15 Q1019 NOSIG
cycle: 23

Station Type Date Time Source
FMEE TAF 2018/09/21 18:12 UTC NOAA

TAF FMEE 211700Z 2118/2224 14010KT 9999 FEW030
FM220700 09018KT 9999 SCT030
BECMG 2214/2216 15012KT


Example: see airport list